sensor_id;sensor_type;location;lat;lon;timestamp;P1;durP1;ratioP1;P2;durP2;ratioP2
61391;SDS011;47261;52.892;5.738;2023-02-13T00:00:11;35.65;;;16.10;;
61391;SDS011;47261;52.892;5.738;2023-02-13T00:02:40;33.40;;;14.30;;
61391;SDS011;47261;52.892;5.738;2023-02-13T00:05:05;38.08;;;17.00;;
61391;SDS011;47261;52.892;5.738;2023-02-13T00:07:31;36.92;;;16.05;;
61391;SDS011;47261;52.892;5.738;2023-02-13T00:09:57;36.20;;;15.97;;
61391;SDS011;47261;52.892;5.738;2023-02-13T00:12:23;34.97;;;14.60;;
61391;SDS011;47261;52.892;5.738;2023-02-13T00:14:48;33.80;;;15.53;;
61391;SDS011;47261;52.892;5.738;2023-02-13T00:17:14;34.63;;;15.70;;
61391;SDS011;47261;52.892;5.738;2023-02-13T00:19:40;37.03;;;16.38;;
61391;SDS011;47261;52.892;5.738;2023-02-13T00:22:05;37.13;;;17.37;;
61391;SDS011;47261;52.892;5.738;2023-02-13T00:24:31;39.67;;;16.45;;
61391;SDS011;47261;52.892;5.738;2023-02-13T00:26:57;39.13;;;16.10;;
61391;SDS011;47261;52.892;5.738;2023-02-13T00:29:22;38.30;;;16.52;;
61391;SDS011;47261;52.892;5.738;2023-02-13T00:31:48;37.00;;;15.23;;
61391;SDS011;47261;52.892;5.738;2023-02-13T00:34:13;32.33;;;14.90;;
61391;SDS011;47261;52.892;5.738;2023-02-13T00:36:39;35.90;;;15.18;;
61391;SDS011;47261;52.892;5.738;2023-02-13T00:39:05;29.73;;;13.90;;
61391;SDS011;47261;52.892;5.738;2023-02-13T00:41:30;30.05;;;14.82;;
61391;SDS011;47261;52.892;5.738;2023-02-13T00:43:56;35.47;;;15.63;;
61391;SDS011;47261;52.892;5.738;2023-02-13T00:46:22;33.35;;;13.98;;
61391;SDS011;47261;52.892;5.738;2023-02-13T00:48:47;37.30;;;16.43;;
61391;SDS011;47261;52.892;5.738;2023-02-13T00:51:13;33.65;;;14.63;;
61391;SDS011;47261;52.892;5.738;2023-02-13T00:53:39;33.53;;;14.30;;
61391;SDS011;47261;52.892;5.738;2023-02-13T00:56:05;34.17;;;15.02;;
61391;SDS011;47261;52.892;5.738;2023-02-13T00:58:31;35.58;;;16.08;;
61391;SDS011;47261;52.892;5.738;2023-02-13T01:00:57;39.27;;;15.63;;
61391;SDS011;47261;52.892;5.738;2023-02-13T01:03:23;36.70;;;15.70;;
61391;SDS011;47261;52.892;5.738;2023-02-13T01:05:49;40.55;;;17.00;;
61391;SDS011;47261;52.892;5.738;2023-02-13T01:08:15;39.15;;;16.83;;
61391;SDS011;47261;52.892;5.738;2023-02-13T01:10:43;33.97;;;15.80;;
61391;SDS011;47261;52.892;5.738;2023-02-13T01:13:10;39.03;;;15.50;;
61391;SDS011;47261;52.892;5.738;2023-02-13T01:15:37;34.83;;;16.13;;
61391;SDS011;47261;52.892;5.738;2023-02-13T01:18:04;35.85;;;15.52;;
61391;SDS011;47261;52.892;5.738;2023-02-13T01:20:29;36.57;;;15.97;;
61391;SDS011;47261;52.892;5.738;2023-02-13T01:22:55;36.50;;;15.68;;
61391;SDS011;47261;52.892;5.738;2023-02-13T01:25:21;35.50;;;15.25;;
61391;SDS011;47261;52.892;5.738;2023-02-13T01:27:47;33.90;;;15.37;;
61391;SDS011;47261;52.892;5.738;2023-02-13T01:30:14;37.55;;;15.65;;
61391;SDS011;47261;52.892;5.738;2023-02-13T01:32:40;39.30;;;16.83;;
61391;SDS011;47261;52.892;5.738;2023-02-13T01:35:08;42.37;;;17.30;;
61391;SDS011;47261;52.892;5.738;2023-02-13T01:37:34;37.38;;;16.45;;
61391;SDS011;47261;52.892;5.738;2023-02-13T01:40:01;38.25;;;15.60;;
61391;SDS011;47261;52.892;5.738;2023-02-13T01:42:29;37.03;;;15.48;;
61391;SDS011;47261;52.892;5.738;2023-02-13T01:44:59;29.52;;;14.25;;
61391;SDS011;47261;52.892;5.738;2023-02-13T01:52:41;37.05;;;16.67;;
61391;SDS011;47261;52.892;5.738;2023-02-13T01:55:11;39.63;;;15.57;;
61391;SDS011;47261;52.892;5.738;2023-02-13T01:57:38;43.72;;;17.98;;
61391;SDS011;47261;52.892;5.738;2023-02-13T02:00:09;39.50;;;16.43;;
61391;SDS011;47261;52.892;5.738;2023-02-13T02:02:37;40.30;;;16.75;;
61391;SDS011;47261;52.892;5.738;2023-02-13T02:05:09;37.70;;;16.33;;
61391;SDS011;47261;52.892;5.738;2023-02-13T02:07:36;35.67;;;15.07;;
61391;SDS011;47261;52.892;5.738;2023-02-13T02:10:06;37.20;;;15.63;;
61391;SDS011;47261;52.892;5.738;2023-02-13T02:12:36;37.53;;;14.83;;
61391;SDS011;47261;52.892;5.738;2023-02-13T02:15:11;40.55;;;17.40;;
61391;SDS011;47261;52.892;5.738;2023-02-13T02:17:36;46.00;;;16.75;;
61391;SDS011;47261;52.892;5.738;2023-02-13T02:20:23;41.77;;;17.07;;
61391;SDS011;47261;52.892;5.738;2023-02-13T02:23:05;40.45;;;16.20;;
61391;SDS011;47261;52.892;5.738;2023-02-13T02:28:49;37.33;;;15.93;;
61391;SDS011;47261;52.892;5.738;2023-02-13T02:39:49;36.67;;;15.80;;
61391;SDS011;47261;52.892;5.738;2023-02-13T02:48:08;40.55;;;16.67;;
61391;SDS011;47261;52.892;5.738;2023-02-13T02:54:10;41.72;;;16.15;;
61391;SDS011;47261;52.892;5.738;2023-02-13T02:57:06;41.85;;;15.90;;
61391;SDS011;47261;52.892;5.738;2023-02-13T02:59:36;43.17;;;17.13;;
61391;SDS011;47261;52.892;5.738;2023-02-13T03:02:23;40.83;;;16.65;;
61391;SDS011;47261;52.892;5.738;2023-02-13T03:05:14;43.88;;;17.10;;
61391;SDS011;47261;52.892;5.738;2023-02-13T03:08:05;45.03;;;17.38;;
61391;SDS011;47261;52.892;5.738;2023-02-13T03:10:31;38.57;;;15.57;;
61391;SDS011;47261;52.892;5.738;2023-02-13T03:13:30;45.50;;;15.93;;
61391;SDS011;47261;52.892;5.738;2023-02-13T03:16:09;46.30;;;17.33;;
61391;SDS011;47261;52.892;5.738;2023-02-13T03:18:58;41.67;;;16.23;;
61391;SDS011;47261;52.892;5.738;2023-02-13T03:27:44;46.17;;;17.47;;
61391;SDS011;47261;52.892;5.738;2023-02-13T03:30:34;41.83;;;16.90;;
61391;SDS011;47261;52.892;5.738;2023-02-13T03:39:26;44.80;;;17.80;;
61391;SDS011;47261;52.892;5.738;2023-02-13T03:42:03;43.97;;;17.13;;
61391;SDS011;47261;52.892;5.738;2023-02-13T03:44:47;40.40;;;15.73;;
61391;SDS011;47261;52.892;5.738;2023-02-13T03:47:40;46.35;;;17.45;;
61391;SDS011;47261;52.892;5.738;2023-02-13T03:50:07;42.22;;;16.75;;
61391;SDS011;47261;52.892;5.738;2023-02-13T03:52:36;39.53;;;15.45;;
61391;SDS011;47261;52.892;5.738;2023-02-13T03:55:20;38.70;;;14.87;;
61391;SDS011;47261;52.892;5.738;2023-02-13T03:58:07;35.00;;;14.07;;
61391;SDS011;47261;52.892;5.738;2023-02-13T04:00:59;40.03;;;15.70;;
61391;SDS011;47261;52.892;5.738;2023-02-13T04:03:48;43.33;;;16.55;;
61391;SDS011;47261;52.892;5.738;2023-02-13T04:09:12;44.23;;;16.23;;
61391;SDS011;47261;52.892;5.738;2023-02-13T04:11:41;46.38;;;16.48;;
61391;SDS011;47261;52.892;5.738;2023-02-13T04:14:14;44.33;;;15.73;;
61391;SDS011;47261;52.892;5.738;2023-02-13T04:16:47;47.00;;;15.88;;
61391;SDS011;47261;52.892;5.738;2023-02-13T04:19:16;42.77;;;15.67;;
61391;SDS011;47261;52.892;5.738;2023-02-13T04:21:42;42.13;;;15.93;;
61391;SDS011;47261;52.892;5.738;2023-02-13T04:24:08;45.85;;;15.77;;
61391;SDS011;47261;52.892;5.738;2023-02-13T04:26:38;44.50;;;15.90;;
61391;SDS011;47261;52.892;5.738;2023-02-13T04:29:05;44.70;;;16.40;;
61391;SDS011;47261;52.892;5.738;2023-02-13T04:31:31;50.22;;;16.75;;
61391;SDS011;47261;52.892;5.738;2023-02-13T04:33:57;46.50;;;15.48;;
61391;SDS011;47261;52.892;5.738;2023-02-13T04:36:23;46.40;;;15.90;;
61391;SDS011;47261;52.892;5.738;2023-02-13T04:38:49;46.67;;;15.73;;
61391;SDS011;47261;52.892;5.738;2023-02-13T04:41:14;48.55;;;17.35;;
61391;SDS011;47261;52.892;5.738;2023-02-13T04:43:40;47.00;;;16.33;;
61391;SDS011;47261;52.892;5.738;2023-02-13T04:46:06;43.33;;;15.57;;
61391;SDS011;47261;52.892;5.738;2023-02-13T04:48:32;38.30;;;14.23;;
61391;SDS011;47261;52.892;5.738;2023-02-13T04:50:57;45.20;;;15.50;;
61391;SDS011;47261;52.892;5.738;2023-02-13T04:53:23;51.37;;;16.60;;
61391;SDS011;47261;52.892;5.738;2023-02-13T04:55:48;43.92;;;15.70;;
61391;SDS011;47261;52.892;5.738;2023-02-13T04:58:14;44.47;;;15.60;;
61391;SDS011;47261;52.892;5.738;2023-02-13T05:00:40;49.83;;;16.67;;
61391;SDS011;47261;52.892;5.738;2023-02-13T05:03:06;48.67;;;16.30;;
61391;SDS011;47261;52.892;5.738;2023-02-13T05:05:33;47.38;;;16.15;;
61391;SDS011;47261;52.892;5.738;2023-02-13T05:07:59;44.38;;;15.65;;
61391;SDS011;47261;52.892;5.738;2023-02-13T05:10:25;42.87;;;15.20;;
61391;SDS011;47261;52.892;5.738;2023-02-13T05:12:51;46.38;;;16.30;;
61391;SDS011;47261;52.892;5.738;2023-02-13T05:15:17;45.83;;;15.70;;
61391;SDS011;47261;52.892;5.738;2023-02-13T05:17:43;48.30;;;15.77;;
61391;SDS011;47261;52.892;5.738;2023-02-13T05:20:09;47.83;;;15.68;;
61391;SDS011;47261;52.892;5.738;2023-02-13T05:22:36;44.25;;;15.57;;
61391;SDS011;47261;52.892;5.738;2023-02-13T05:25:20;45.90;;;15.83;;
61391;SDS011;47261;52.892;5.738;2023-02-13T05:27:46;40.72;;;14.88;;
61391;SDS011;47261;52.892;5.738;2023-02-13T05:30:11;41.63;;;14.73;;
61391;SDS011;47261;52.892;5.738;2023-02-13T05:32:38;51.03;;;16.15;;
61391;SDS011;47261;52.892;5.738;2023-02-13T05:35:04;46.50;;;15.77;;
61391;SDS011;47261;52.892;5.738;2023-02-13T05:37:30;43.40;;;15.50;;
61391;SDS011;47261;52.892;5.738;2023-02-13T05:39:55;46.53;;;15.88;;
61391;SDS011;47261;52.892;5.738;2023-02-13T05:42:21;44.20;;;15.90;;
61391;SDS011;47261;52.892;5.738;2023-02-13T05:44:47;46.88;;;15.57;;
61391;SDS011;47261;52.892;5.738;2023-02-13T05:47:12;45.00;;;15.80;;
61391;SDS011;47261;52.892;5.738;2023-02-13T05:49:38;45.40;;;16.67;;
61391;SDS011;47261;52.892;5.738;2023-02-13T05:52:03;44.97;;;16.50;;
61391;SDS011;47261;52.892;5.738;2023-02-13T05:54:29;44.90;;;15.93;;
61391;SDS011;47261;52.892;5.738;2023-02-13T05:56:55;48.40;;;16.77;;
61391;SDS011;47261;52.892;5.738;2023-02-13T05:59:20;45.37;;;15.77;;
61391;SDS011;47261;52.892;5.738;2023-02-13T06:01:46;45.88;;;15.63;;
61391;SDS011;47261;52.892;5.738;2023-02-13T06:04:12;47.20;;;17.33;;
61391;SDS011;47261;52.892;5.738;2023-02-13T06:06:37;45.90;;;15.65;;
61391;SDS011;47261;52.892;5.738;2023-02-13T06:09:03;42.83;;;15.50;;
61391;SDS011;47261;52.892;5.738;2023-02-13T06:11:29;43.28;;;15.38;;
61391;SDS011;47261;52.892;5.738;2023-02-13T06:13:54;46.27;;;16.20;;
61391;SDS011;47261;52.892;5.738;2023-02-13T06:16:20;46.07;;;16.67;;
61391;SDS011;47261;52.892;5.738;2023-02-13T06:18:46;46.85;;;15.90;;
61391;SDS011;47261;52.892;5.738;2023-02-13T06:21:12;39.00;;;14.77;;
61391;SDS011;47261;52.892;5.738;2023-02-13T06:23:37;49.40;;;16.33;;
61391;SDS011;47261;52.892;5.738;2023-02-13T06:26:04;46.90;;;15.70;;
61391;SDS011;47261;52.892;5.738;2023-02-13T06:28:30;40.85;;;14.30;;
61391;SDS011;47261;52.892;5.738;2023-02-13T06:30:56;43.08;;;15.25;;
61391;SDS011;47261;52.892;5.738;2023-02-13T06:33:21;41.00;;;15.67;;
61391;SDS011;47261;52.892;5.738;2023-02-13T06:35:47;40.60;;;14.07;;
61391;SDS011;47261;52.892;5.738;2023-02-13T06:38:13;42.67;;;14.33;;
61391;SDS011;47261;52.892;5.738;2023-02-13T06:40:38;43.58;;;14.05;;
61391;SDS011;47261;52.892;5.738;2023-02-13T06:43:04;46.00;;;15.07;;
61391;SDS011;47261;52.892;5.738;2023-02-13T06:45:30;41.47;;;15.47;;
61391;SDS011;47261;52.892;5.738;2023-02-13T06:47:55;44.08;;;14.95;;
61391;SDS011;47261;52.892;5.738;2023-02-13T06:50:21;42.13;;;14.63;;
61391;SDS011;47261;52.892;5.738;2023-02-13T06:52:49;42.40;;;14.70;;
61391;SDS011;47261;52.892;5.738;2023-02-13T06:55:15;46.13;;;14.63;;
61391;SDS011;47261;52.892;5.738;2023-02-13T06:57:41;42.20;;;14.60;;
61391;SDS011;47261;52.892;5.738;2023-02-13T07:00:08;45.95;;;15.40;;
61391;SDS011;47261;52.892;5.738;2023-02-13T07:02:37;43.35;;;14.88;;
61391;SDS011;47261;52.892;5.738;2023-02-13T07:05:06;42.38;;;14.57;;
61391;SDS011;47261;52.892;5.738;2023-02-13T07:07:33;47.73;;;16.23;;
61391;SDS011;47261;52.892;5.738;2023-02-13T07:10:00;41.25;;;13.85;;
61391;SDS011;47261;52.892;5.738;2023-02-13T07:12:25;41.95;;;14.68;;
61391;SDS011;47261;52.892;5.738;2023-02-13T07:14:51;48.07;;;14.33;;
61391;SDS011;47261;52.892;5.738;2023-02-13T07:17:17;42.00;;;14.67;;
61391;SDS011;47261;52.892;5.738;2023-02-13T07:19:42;48.38;;;16.45;;
61391;SDS011;47261;52.892;5.738;2023-02-13T07:22:08;44.67;;;15.37;;
61391;SDS011;47261;52.892;5.738;2023-02-13T07:24:34;43.58;;;14.65;;
61391;SDS011;47261;52.892;5.738;2023-02-13T07:27:00;39.80;;;14.50;;
61391;SDS011;47261;52.892;5.738;2023-02-13T07:29:26;42.72;;;14.32;;
61391;SDS011;47261;52.892;5.738;2023-02-13T07:31:52;45.45;;;15.02;;
61391;SDS011;47261;52.892;5.738;2023-02-13T07:34:17;48.83;;;15.13;;
61391;SDS011;47261;52.892;5.738;2023-02-13T07:36:43;43.28;;;14.07;;
61391;SDS011;47261;52.892;5.738;2023-02-13T07:39:08;40.93;;;13.77;;
61391;SDS011;47261;52.892;5.738;2023-02-13T07:41:34;50.67;;;15.03;;
61391;SDS011;47261;52.892;5.738;2023-02-13T07:43:59;46.13;;;13.65;;
61391;SDS011;47261;52.892;5.738;2023-02-13T07:46:25;46.67;;;15.03;;
61391;SDS011;47261;52.892;5.738;2023-02-13T07:48:51;44.85;;;14.35;;
61391;SDS011;47261;52.892;5.738;2023-02-13T07:51:17;44.00;;;15.17;;
61391;SDS011;47261;52.892;5.738;2023-02-13T07:53:42;44.35;;;13.80;;
61391;SDS011;47261;52.892;5.738;2023-02-13T07:56:08;44.50;;;15.40;;
61391;SDS011;47261;52.892;5.738;2023-02-13T07:58:35;41.88;;;15.15;;
61391;SDS011;47261;52.892;5.738;2023-02-13T08:01:05;44.40;;;14.43;;
61391;SDS011;47261;52.892;5.738;2023-02-13T08:03:35;46.03;;;14.00;;
61391;SDS011;47261;52.892;5.738;2023-02-13T08:06:01;45.25;;;13.98;;
61391;SDS011;47261;52.892;5.738;2023-02-13T08:08:27;46.88;;;14.95;;
61391;SDS011;47261;52.892;5.738;2023-02-13T08:10:53;47.90;;;15.30;;
61391;SDS011;47261;52.892;5.738;2023-02-13T08:13:38;43.55;;;14.32;;
61391;SDS011;47261;52.892;5.738;2023-02-13T08:16:04;46.60;;;15.23;;
61391;SDS011;47261;52.892;5.738;2023-02-13T08:18:30;46.20;;;14.10;;
61391;SDS011;47261;52.892;5.738;2023-02-13T08:20:55;40.17;;;13.63;;
61391;SDS011;47261;52.892;5.738;2023-02-13T08:23:21;46.27;;;14.17;;
61391;SDS011;47261;52.892;5.738;2023-02-13T08:25:47;42.78;;;14.25;;
61391;SDS011;47261;52.892;5.738;2023-02-13T08:28:14;44.50;;;14.03;;
61391;SDS011;47261;52.892;5.738;2023-02-13T08:30:40;41.53;;;14.40;;
61391;SDS011;47261;52.892;5.738;2023-02-13T08:33:06;54.03;;;17.70;;
61391;SDS011;47261;52.892;5.738;2023-02-13T08:35:31;67.87;;;20.33;;
61391;SDS011;47261;52.892;5.738;2023-02-13T08:38:01;61.78;;;19.30;;
61391;SDS011;47261;52.892;5.738;2023-02-13T08:40:27;52.70;;;17.83;;
61391;SDS011;47261;52.892;5.738;2023-02-13T08:42:58;56.90;;;16.10;;
61391;SDS011;47261;52.892;5.738;2023-02-13T08:45:28;45.00;;;14.35;;
61391;SDS011;47261;52.892;5.738;2023-02-13T08:47:55;40.42;;;12.77;;
61391;SDS011;47261;52.892;5.738;2023-02-13T08:50:21;41.07;;;14.13;;
61391;SDS011;47261;52.892;5.738;2023-02-13T08:52:47;40.50;;;12.98;;
61391;SDS011;47261;52.892;5.738;2023-02-13T08:55:13;44.83;;;13.68;;
61391;SDS011;47261;52.892;5.738;2023-02-13T08:57:38;43.77;;;13.50;;
61391;SDS011;47261;52.892;5.738;2023-02-13T09:00:04;38.73;;;12.70;;
61391;SDS011;47261;52.892;5.738;2023-02-13T09:02:30;39.22;;;14.48;;
61391;SDS011;47261;52.892;5.738;2023-02-13T09:04:56;43.08;;;13.38;;
61391;SDS011;47261;52.892;5.738;2023-02-13T09:07:21;39.63;;;14.07;;
61391;SDS011;47261;52.892;5.738;2023-02-13T09:09:47;42.07;;;14.27;;
61391;SDS011;47261;52.892;5.738;2023-02-13T09:12:13;43.03;;;13.13;;
61391;SDS011;47261;52.892;5.738;2023-02-13T09:14:38;43.50;;;13.57;;
61391;SDS011;47261;52.892;5.738;2023-02-13T09:17:04;46.15;;;14.23;;
61391;SDS011;47261;52.892;5.738;2023-02-13T09:19:30;40.43;;;13.33;;
61391;SDS011;47261;52.892;5.738;2023-02-13T09:21:55;41.17;;;12.75;;
61391;SDS011;47261;52.892;5.738;2023-02-13T09:24:21;40.93;;;13.07;;
61391;SDS011;47261;52.892;5.738;2023-02-13T09:26:46;41.83;;;13.13;;
61391;SDS011;47261;52.892;5.738;2023-02-13T09:29:12;39.37;;;13.40;;
61391;SDS011;47261;52.892;5.738;2023-02-13T09:31:38;38.57;;;12.27;;
61391;SDS011;47261;52.892;5.738;2023-02-13T09:34:03;34.85;;;12.48;;
61391;SDS011;47261;52.892;5.738;2023-02-13T09:36:29;37.00;;;12.40;;
61391;SDS011;47261;52.892;5.738;2023-02-13T09:38:55;40.25;;;13.77;;
61391;SDS011;47261;52.892;5.738;2023-02-13T09:41:22;38.50;;;12.70;;
61391;SDS011;47261;52.892;5.738;2023-02-13T09:43:53;40.17;;;12.55;;
61391;SDS011;47261;52.892;5.738;2023-02-13T09:46:25;37.38;;;12.10;;
61391;SDS011;47261;52.892;5.738;2023-02-13T09:48:58;39.95;;;12.38;;
61391;SDS011;47261;52.892;5.738;2023-02-13T09:51:27;37.13;;;12.13;;
61391;SDS011;47261;52.892;5.738;2023-02-13T09:54:00;34.17;;;11.70;;
61391;SDS011;47261;52.892;5.738;2023-02-13T10:16:08;34.10;;;10.98;;
61391;SDS011;47261;52.892;5.738;2023-02-13T10:21:37;35.53;;;11.53;;
61391;SDS011;47261;52.892;5.738;2023-02-13T10:24:11;33.40;;;11.30;;
61391;SDS011;47261;52.892;5.738;2023-02-13T10:26:43;34.65;;;11.00;;
61391;SDS011;47261;52.892;5.738;2023-02-13T10:29:21;30.67;;;10.43;;
61391;SDS011;47261;52.892;5.738;2023-02-13T10:32:13;35.65;;;11.85;;
61391;SDS011;47261;52.892;5.738;2023-02-13T10:34:43;34.83;;;11.30;;
61391;SDS011;47261;52.892;5.738;2023-02-13T10:37:15;32.80;;;11.32;;
61391;SDS011;47261;52.892;5.738;2023-02-13T10:39:43;34.42;;;11.18;;
61391;SDS011;47261;52.892;5.738;2023-02-13T10:45:04;33.47;;;10.50;;
61391;SDS011;47261;52.892;5.738;2023-02-13T10:47:51;33.27;;;10.80;;
61391;SDS011;47261;52.892;5.738;2023-02-13T11:03:21;33.03;;;10.90;;
61391;SDS011;47261;52.892;5.738;2023-02-13T11:05:48;34.40;;;11.57;;
61391;SDS011;47261;52.892;5.738;2023-02-13T11:10:52;34.33;;;11.88;;
61391;SDS011;47261;52.892;5.738;2023-02-13T11:13:19;40.83;;;13.30;;
61391;SDS011;47261;52.892;5.738;2023-02-13T11:15:57;38.75;;;13.05;;
61391;SDS011;47261;52.892;5.738;2023-02-13T11:18:25;35.65;;;12.25;;
61391;SDS011;47261;52.892;5.738;2023-02-13T11:25:58;36.27;;;13.50;;
61391;SDS011;47261;52.892;5.738;2023-02-13T11:28:27;44.25;;;15.40;;
61391;SDS011;47261;52.892;5.738;2023-02-13T11:31:07;39.58;;;14.80;;
61391;SDS011;47261;52.892;5.738;2023-02-13T11:33:49;40.17;;;14.93;;
61391;SDS011;47261;52.892;5.738;2023-02-13T11:36:26;48.00;;;16.40;;
61391;SDS011;47261;52.892;5.738;2023-02-13T11:39:04;43.60;;;16.17;;
61391;SDS011;47261;52.892;5.738;2023-02-13T11:41:38;39.00;;;15.60;;
61391;SDS011;47261;52.892;5.738;2023-02-13T11:44:14;41.50;;;15.70;;
61391;SDS011;47261;52.892;5.738;2023-02-13T11:46:45;39.08;;;16.27;;
61391;SDS011;47261;52.892;5.738;2023-02-13T11:49:25;38.45;;;16.00;;
61391;SDS011;47261;52.892;5.738;2023-02-13T11:51:53;41.88;;;17.45;;
61391;SDS011;47261;52.892;5.738;2023-02-13T11:54:34;40.03;;;16.65;;
61391;SDS011;47261;52.892;5.738;2023-02-13T12:00:26;41.70;;;16.25;;
61391;SDS011;47261;52.892;5.738;2023-02-13T12:02:55;44.33;;;17.80;;
61391;SDS011;47261;52.892;5.738;2023-02-13T12:05:21;41.63;;;17.52;;
61391;SDS011;47261;52.892;5.738;2023-02-13T12:07:49;42.27;;;17.93;;
61391;SDS011;47261;52.892;5.738;2023-02-13T12:10:16;41.35;;;18.55;;
61391;SDS011;47261;52.892;5.738;2023-02-13T12:15:21;39.70;;;17.70;;
61391;SDS011;47261;52.892;5.738;2023-02-13T12:20:40;40.17;;;18.13;;
61391;SDS011;47261;52.892;5.738;2023-02-13T12:26:38;43.55;;;18.83;;
61391;SDS011;47261;52.892;5.738;2023-02-13T12:29:24;41.83;;;18.63;;
61391;SDS011;47261;52.892;5.738;2023-02-13T12:34:27;41.50;;;19.77;;
61391;SDS011;47261;52.892;5.738;2023-02-13T12:39:35;41.78;;;18.40;;
61391;SDS011;47261;52.892;5.738;2023-02-13T12:47:21;43.57;;;20.53;;
61391;SDS011;47261;52.892;5.738;2023-02-13T12:50:06;46.72;;;21.17;;
61391;SDS011;47261;52.892;5.738;2023-02-13T12:52:55;43.75;;;19.77;;
61391;SDS011;47261;52.892;5.738;2023-02-13T12:58:27;45.90;;;21.13;;
61391;SDS011;47261;52.892;5.738;2023-02-13T13:28:00;45.20;;;20.93;;
61391;SDS011;47261;52.892;5.738;2023-02-13T13:30:31;44.80;;;20.40;;
61391;SDS011;47261;52.892;5.738;2023-02-13T13:35:33;46.75;;;20.85;;
61391;SDS011;47261;52.892;5.738;2023-02-13T13:46:21;45.25;;;21.58;;
61391;SDS011;47261;52.892;5.738;2023-02-13T13:49:34;46.17;;;21.65;;
61391;SDS011;47261;52.892;5.738;2023-02-13T13:52:35;45.05;;;20.75;;
61391;SDS011;47261;52.892;5.738;2023-02-13T13:54:55;45.03;;;20.53;;
61391;SDS011;47261;52.892;5.738;2023-02-13T14:02:44;51.45;;;23.55;;
61391;SDS011;47261;52.892;5.738;2023-02-13T14:05:23;53.33;;;22.95;;
61391;SDS011;47261;52.892;5.738;2023-02-13T14:07:50;50.27;;;23.70;;
61391;SDS011;47261;52.892;5.738;2023-02-13T14:26:28;44.15;;;20.80;;
61391;SDS011;47261;52.892;5.738;2023-02-13T14:28:56;48.72;;;23.17;;
61391;SDS011;47261;52.892;5.738;2023-02-13T14:31:35;48.92;;;23.75;;
61391;SDS011;47261;52.892;5.738;2023-02-13T14:34:07;50.47;;;23.93;;
61391;SDS011;47261;52.892;5.738;2023-02-13T14:36:44;48.28;;;22.85;;
61391;SDS011;47261;52.892;5.738;2023-02-13T14:39:22;52.35;;;23.70;;
61391;SDS011;47261;52.892;5.738;2023-02-13T14:44:25;53.20;;;26.07;;
61391;SDS011;47261;52.892;5.738;2023-02-13T14:50:07;51.95;;;24.05;;
61391;SDS011;47261;52.892;5.738;2023-02-13T14:52:42;54.58;;;24.60;;
61391;SDS011;47261;52.892;5.738;2023-02-13T14:55:15;51.67;;;24.33;;
61391;SDS011;47261;52.892;5.738;2023-02-13T14:58:03;59.15;;;26.95;;
61391;SDS011;47261;52.892;5.738;2023-02-13T15:03:09;56.72;;;26.80;;
61391;SDS011;47261;52.892;5.738;2023-02-13T15:05:53;58.92;;;26.85;;
61391;SDS011;47261;52.892;5.738;2023-02-13T15:08:24;56.90;;;26.70;;
61391;SDS011;47261;52.892;5.738;2023-02-13T15:10:58;57.63;;;27.50;;
61391;SDS011;47261;52.892;5.738;2023-02-13T15:13:34;58.45;;;27.02;;
61391;SDS011;47261;52.892;5.738;2023-02-13T15:16:05;58.60;;;27.60;;
61391;SDS011;47261;52.892;5.738;2023-02-13T15:18:40;55.95;;;27.27;;
61391;SDS011;47261;52.892;5.738;2023-02-13T15:21:17;56.90;;;27.25;;
61391;SDS011;47261;52.892;5.738;2023-02-13T15:23:48;61.00;;;29.40;;
61391;SDS011;47261;52.892;5.738;2023-02-13T15:26:19;57.65;;;27.45;;
61391;SDS011;47261;52.892;5.738;2023-02-13T15:29:04;55.53;;;27.67;;
61391;SDS011;47261;52.892;5.738;2023-02-13T15:31:40;55.42;;;28.30;;
61391;SDS011;47261;52.892;5.738;2023-02-13T15:34:19;58.72;;;28.60;;
61391;SDS011;47261;52.892;5.738;2023-02-13T15:36:48;58.97;;;28.00;;
61391;SDS011;47261;52.892;5.738;2023-02-13T15:39:15;58.60;;;29.55;;
61391;SDS011;47261;52.892;5.738;2023-02-13T15:41:50;55.72;;;29.42;;
61391;SDS011;47261;52.892;5.738;2023-02-13T15:44:23;57.67;;;29.38;;
61391;SDS011;47261;52.892;5.738;2023-02-13T15:46:54;55.28;;;27.77;;
61391;SDS011;47261;52.892;5.738;2023-02-13T15:49:26;54.80;;;27.57;;
61391;SDS011;47261;52.892;5.738;2023-02-13T15:52:00;58.67;;;28.67;;
61391;SDS011;47261;52.892;5.738;2023-02-13T15:54:32;55.85;;;28.33;;
61391;SDS011;47261;52.892;5.738;2023-02-13T15:57:03;57.53;;;28.65;;
61391;SDS011;47261;52.892;5.738;2023-02-13T15:59:34;60.13;;;28.10;;
61391;SDS011;47261;52.892;5.738;2023-02-13T16:02:02;59.53;;;29.47;;
61391;SDS011;47261;52.892;5.738;2023-02-13T16:04:31;57.10;;;28.95;;
61391;SDS011;47261;52.892;5.738;2023-02-13T16:06:57;61.92;;;29.63;;
61391;SDS011;47261;52.892;5.738;2023-02-13T16:09:31;57.22;;;28.35;;
61391;SDS011;47261;52.892;5.738;2023-02-13T16:12:03;57.58;;;27.50;;
61391;SDS011;47261;52.892;5.738;2023-02-13T16:15:04;57.63;;;27.67;;
61391;SDS011;47261;52.892;5.738;2023-02-13T16:17:32;56.53;;;28.30;;
61391;SDS011;47261;52.892;5.738;2023-02-13T16:20:01;60.42;;;29.00;;
61391;SDS011;47261;52.892;5.738;2023-02-13T16:22:33;65.25;;;28.80;;
61391;SDS011;47261;52.892;5.738;2023-02-13T16:25:03;56.00;;;28.23;;
61391;SDS011;47261;52.892;5.738;2023-02-13T16:27:30;50.03;;;25.23;;
61391;SDS011;47261;52.892;5.738;2023-02-13T16:29:58;50.40;;;24.90;;
61391;SDS011;47261;52.892;5.738;2023-02-13T16:32:27;56.35;;;25.60;;
61391;SDS011;47261;52.892;5.738;2023-02-13T16:34:55;57.78;;;27.60;;
61391;SDS011;47261;52.892;5.738;2023-02-13T16:37:29;54.03;;;26.10;;
61391;SDS011;47261;52.892;5.738;2023-02-13T16:40:15;54.87;;;26.50;;
61391;SDS011;47261;52.892;5.738;2023-02-13T16:51:30;50.08;;;24.50;;
61391;SDS011;47261;52.892;5.738;2023-02-13T17:02:02;62.20;;;28.17;;
61391;SDS011;47261;52.892;5.738;2023-02-13T17:04:27;61.25;;;28.60;;
61391;SDS011;47261;52.892;5.738;2023-02-13T17:06:53;64.60;;;27.60;;
61391;SDS011;47261;52.892;5.738;2023-02-13T17:09:19;63.53;;;28.65;;
61391;SDS011;47261;52.892;5.738;2023-02-13T17:11:49;59.85;;;28.63;;
61391;SDS011;47261;52.892;5.738;2023-02-13T17:14:16;57.97;;;24.57;;
61391;SDS011;47261;52.892;5.738;2023-02-13T17:16:44;50.72;;;23.27;;
61391;SDS011;47261;52.892;5.738;2023-02-13T17:19:10;55.03;;;25.00;;
61391;SDS011;47261;52.892;5.738;2023-02-13T17:21:36;57.17;;;25.65;;
61391;SDS011;47261;52.892;5.738;2023-02-13T17:24:03;52.00;;;24.47;;
61391;SDS011;47261;52.892;5.738;2023-02-13T17:26:30;52.53;;;23.40;;
61391;SDS011;47261;52.892;5.738;2023-02-13T17:28:55;58.15;;;24.60;;
61391;SDS011;47261;52.892;5.738;2023-02-13T17:31:21;47.73;;;20.53;;
61391;SDS011;47261;52.892;5.738;2023-02-13T17:33:47;52.30;;;23.80;;
61391;SDS011;47261;52.892;5.738;2023-02-13T17:36:12;49.37;;;21.87;;
61391;SDS011;47261;52.892;5.738;2023-02-13T17:38:38;51.53;;;23.40;;
61391;SDS011;47261;52.892;5.738;2023-02-13T17:41:04;49.17;;;20.87;;
61391;SDS011;47261;52.892;5.738;2023-02-13T17:43:35;50.65;;;22.83;;
61391;SDS011;47261;52.892;5.738;2023-02-13T17:46:01;48.90;;;21.70;;
61391;SDS011;47261;52.892;5.738;2023-02-13T17:48:28;52.40;;;23.48;;
61391;SDS011;47261;52.892;5.738;2023-02-13T17:50:53;51.67;;;23.10;;
61391;SDS011;47261;52.892;5.738;2023-02-13T17:53:26;50.30;;;23.40;;